Strona główna
METAR-TAF:

METAR-TAF

Lotnisko :

Port lotniczy Bagdad

Bagdad, Irak

Szerokość geograficzna: 33-15-45N, Długość geograficzna: 44-14-04E, wysokość: 35 m

Aktualna obserwacja pogody

Raport powstał 8 minut temu, godzina 12:00 UTC
Wiatr 12 kt od północny zachód
Temperatura 17°C
Wilgotność 68%
Ciśnienie 1015 hPa
Widzialność: 3400 m
Przerywane chmury na wysokości 3000 ft

METAR: ORBI 161200Z 31012KT 8000 3400 BKN030 17/11 Q1015 NOSIG

czas: 15:08 (12:08 UTC)

Prognoza

Raport powstał 1 godzina i 8 minut temu, godzina 11:00 UTC
Prognoza ważna od 16 godzina 12 UTC do 17 godzina 12 UTC
Wiatr 10 kt od zachodnio-północny zachód
Widzialność: 3000 m
Przerywane chmury na wysokości 3000 ft
Przerywane chmury na wysokości 9000 ft
zmętnienie
Przejściowo
od 16 godzina 12 UTC do 17 godzina 02 UTC
deszcz

TAF: ORBI 161100Z 1612/1712 30010KT 3000 HZ BKN030 BKN090 TEMPO 1612/1702 RA

Obserwacja i prognoza pogody dla ponad 4000 lotnisk (raport METAR i TAF).

Dostępne stacje oznaczono żółtymi i czerwonymi punktami na mapie.

Najedź kursorem aby zobaczyć nazwę stacji.

Kliknij aby zobaczyć obserwacje i prognozy pogody.

Aby zmienić mapę: kliknij na zielony przycisk z czarnym krzyżykiem, aby powiększyć; na zielony przycisk z myślnikiem, aby pomniejszyć; na zielone strzałki, aby przejść do map sąsiednich.


METAR-TAF: